Neah Bay, WA (98357)

07:17 PM PDT on Augusti 04, 2015 (GMT -0700)
Hoko | | Change Station
CLOSE
Current Station
Personal Weather Stations
Location: Sekiu, WA
Elevation: 56 ft
Nearby Weather Stations

Elev 56 ft 48.29 °N, 124.36 °W | Updated 2 minutes ago

Mestadels molnigt
Mestadels molnigt
66.9 °F
Feels Like 66.9 °F
N
3.8
Vind Växlande Vind from NO
Gusts 6.0 miles/tim

Idag
High -- | Low -- °F
--% Chance of Precip.
Yesterday
High -- | Low -- °F
Precip. -- tum
5:57 AM 8:51 PM
Tredje kvarteret, 72% visible
Lufttryck 30.06 tum
Sikt 9.0 miles
Molnigt Few 2300 ft
Daggpunkt 56 °F
Luftfuktighet 67%
Rainfall 0.00 tum
Snow Depth Not available.
UV 1 out of 12
Pollen 4.40 out of 12
Air Quality Not available.
Flu Activity Not available.
METAR KUIL 050153Z AUTO 33007G15KT 9SM FEW023 17/12 A3006 RMK AO2 SLP178 T01670122

More Conditions Fewer Conditions

Lufttryck 30.06 tum
Sikt 9.0 miles
Molnigt Few 2300 ft
Daggpunkt 56 °F
Luftfuktighet 67%
Rainfall 0.00 tum
Snow Depth Not available.
UV 1 out of 12
Pollen 4.40 out of 12
Air Quality Not available.
Flu Activity Not available.
METAR KUIL 050153Z AUTO 33007G15KT 9SM FEW023 17/12 A3006 RMK AO2 SLP178 T01670122

More Conditions Fewer Conditions

10-Day Weather Forecast

×

Almanac

Astronomi

Aug. 04, 2015 Rise Set
Actual Time
Civil Twilight
Nautical Twilight
Astronomical Twilight
Månen
Length Of Visible Light
Dagens längd
Tomorrow will be .
, % of the Moon is Illuminated

Today's Extremes

State Highs State Lows

Community

WunderPhotos

Upload Photos

1,844,077 photos uploaded!

WunderBlogs® & News

Nearby

Air Quality

  Air Quality AQ Index Pollutant
Not available.

Snödjup

Station Depth Elevation

Earthquake Activity

Stad Distance Mag. Time & Date
Minimum magnitude displayed is 2.5.

Coastal Water Temperatures

Plats Temperatur

Stations

Nearby Weather Stations

Station Location Temp Vindavkylning Daggpunkt Luftfuktighet Vind Precip. Elev Uppdaterad Type